Time;durP1;ratioP1;P1;durP2;ratioP2;P2;SDS_P1;SDS_P2;PMS_P1;PMS_P2;Temp;Humidity;BMP_temperature;BMP_pressure;BME280_temperature;BME280_humidity;BME280_pressure;Samples;Min_cycle;Max_cycle;Signal;HPM_P1;HPM_P2
2022/01/13 00:01:23;;;;;;;22.92;10.30;;;;;;;15.08;46.93;104001.59;5035228;28;20415;-62
2022/01/13 00:03:49;;;;;;;19.30;9.90;;;;;;;15.06;47.04;104012.69;5015720;28;20034;-62
2022/01/13 00:06:15;;;;;;;20.70;9.82;;;;;;;15.06;46.93;104013.56;5015386;28;20084;-62
2022/01/13 00:08:40;;;;;;;19.90;9.60;;;;;;;15.05;47.04;104008.28;5015720;28;20034;-61
2022/01/13 00:11:06;;;;;;;18.92;9.57;;;;;;;15.02;47.13;104001.22;5015149;28;20033;-62
2022/01/13 00:13:45;;;;;;;20.23;9.90;;;;;;;15.02;47.03;104001.22;5030156;28;20354;-62
2022/01/13 00:19:06;;;;;;;20.00;9.25;;;;;;;15.00;47.24;104023.56;5027336;28;20107;-62
2022/01/13 00:21:37;;;;;;;;;;;;;;;15.00;47.54;104023.56;5035594;28;20030;-62
2022/01/13 00:24:05;;;;;;;21.27;10.25;;;;;;;14.99;47.07;104019.22;5035312;28;19917;-62
2022/01/13 00:26:32;;;;;;;20.83;9.93;;;;;;;14.99;47.13;104016.63;5034956;28;20030;-62
2022/01/13 00:29:01;;;;;;;21.17;9.82;;;;;;;14.97;47.27;104023.41;5033597;28;20053;-62
2022/01/13 00:31:31;;;;;;;21.55;10.40;;;;;;;14.96;47.02;104013.81;5035124;28;20069;-62
2022/01/13 00:33:59;;;;;;;19.00;9.45;;;;;;;14.95;47.09;104019.78;5034616;28;20391;-62
2022/01/13 00:36:27;;;;;;;18.92;9.00;;;;;;;14.95;47.07;104025.91;5034628;28;20025;-62
2022/01/13 00:38:53;;;;;;;18.08;9.50;;;;;;;14.95;47.01;104019.78;5034460;28;20033;-62
2022/01/13 00:41:19;;;;;;;20.70;10.15;;;;;;;14.96;47.01;104016.41;5034779;28;20113;-61
2022/01/13 00:43:47;;;;;;;19.27;9.68;;;;;;;14.95;47.02;104015.53;5034740;28;20034;-62
2022/01/13 00:46:21;;;;;;;19.38;9.70;;;;;;;14.95;46.97;104004.22;5034795;28;20033;-62
2022/01/13 00:48:48;;;;;;;19.60;10.00;;;;;;;14.95;47.19;104001.63;5034576;28;20030;-62
2022/01/13 00:51:13;;;;;;;19.10;9.77;;;;;;;14.95;47.05;103999.03;5034241;28;20434;-62
2022/01/13 00:53:39;;;;;;;17.15;8.77;;;;;;;14.94;47.06;104003.34;5032703;28;20144;-62
2022/01/13 00:56:04;;;;;;;19.35;9.18;;;;;;;14.94;47.02;103992.94;5034529;28;20041;-62
2022/01/13 00:58:34;;;;;;;18.02;9.00;;;;;;;14.92;47.03;103994.53;5034246;28;20171;-62
2022/01/13 01:01:01;;;;;;;17.08;9.27;;;;;;;14.93;47.17;103985.06;5034231;28;20033;-62
2022/01/13 01:03:27;;;;;;;17.38;8.75;;;;;;;14.94;47.03;103986.88;5034474;28;20078;-62
2022/01/13 01:05:53;;;;;;;18.05;9.35;;;;;;;14.93;47.02;103982.47;5034358;28;20037;-62
2022/01/13 01:08:19;;;;;;;19.08;9.80;;;;;;;14.92;47.10;103978.94;5034175;28;20025;-62
2022/01/13 01:10:48;;;;;;;20.58;10.02;;;;;;;14.92;46.97;103983.25;5034254;28;20034;-62
2022/01/13 01:13:18;;;;;;;17.63;8.93;;;;;;;14.92;46.98;103988.47;5032853;28;20029;-62
2022/01/13 01:15:50;;;;;;;18.38;9.27;;;;;;;14.93;47.11;103990.25;5033770;28;20484;-62
2022/01/13 01:29:06;;;;;;;18.45;9.15;;;;;;;14.90;47.11;104000.44;5014368;28;20099;-62
2022/01/13 01:31:34;;;;;;;16.58;8.85;;;;;;;14.91;47.08;104002.22;5014262;28;20030;-62
2022/01/13 01:36:32;;;;;;;16.70;8.52;;;;;;;14.90;46.98;103990.03;5014163;28;20061;-62
2022/01/13 01:38:59;;;;;;;15.75;8.50;;;;;;;14.89;47.01;103989.16;5013675;28;20388;-62
2022/01/13 01:41:25;;;;;;;14.93;8.30;;;;;;;14.89;46.97;103988.28;5013486;28;20061;-62
2022/01/13 01:43:52;;;;;;;15.65;8.63;;;;;;;14.89;46.98;103983.97;5014118;28;20038;-62
2022/01/13 01:46:18;;;;;;;16.13;8.98;;;;;;;14.89;47.14;103988.28;5013866;28;20033;-62
2022/01/13 01:48:43;;;;;;;15.23;8.30;;;;;;;14.89;47.08;103983.09;5014188;28;20176;-62
2022/01/13 01:51:08;;;;;;;17.50;9.18;;;;;;;14.89;46.84;103985.69;5013874;28;20070;-61
2022/01/13 01:53:34;;;;;;;16.23;8.35;;;;;;;14.88;46.97;103984.75;5032170;28;20054;-62
2022/01/13 01:55:59;;;;;;;16.42;8.85;;;;;;;14.87;47.24;103976.88;5033792;28;20034;-62
2022/01/13 01:58:27;;;;;;;16.55;8.55;;;;;;;14.87;46.85;103985.56;5033350;28;20116;-62
2022/01/13 02:00:54;;;;;;;16.98;9.25;;;;;;;14.87;46.93;103982.97;5033663;28;20088;-62
2022/01/13 02:03:19;;;;;;;14.63;7.90;;;;;;;14.86;46.94;103978.59;5033523;28;20045;-62
2022/01/13 02:05:47;;;;;;;15.98;8.20;;;;;;;14.87;47.06;103979.47;5033454;28;20421;-62
2022/01/13 02:08:12;;;;;;;16.45;8.48;;;;;;;14.87;46.88;103979.47;5033517;28;20026;-62
2022/01/13 02:10:37;;;;;;;16.10;8.60;;;;;;;14.86;47.14;103980.28;5033358;28;20038;-62
2022/01/13 02:13:07;;;;;;;13.98;8.05;;;;;;;14.86;46.75;103988.06;5033607;28;20084;-62
2022/01/13 02:15:35;;;;;;;15.13;8.05;;;;;;;14.85;46.76;103982.00;5033234;28;20025;-62
2022/01/13 02:18:04;;;;;;;16.15;8.88;;;;;;;14.85;47.09;103989.78;5033194;28;20116;-62
2022/01/13 02:20:51;;;;;;;14.40;7.85;;;;;;;14.85;47.16;103991.47;5033233;28;20080;-62
2022/01/13 02:23:38;;;;;;;14.48;8.00;;;;;;;14.85;47.26;103994.97;5033456;28;20029;-62
2022/01/13 02:26:06;;;;;;;16.30;8.07;;;;;;;14.84;47.04;103992.28;5015659;28;20029;-62
2022/01/13 02:28:32;;;;;;;16.75;7.97;;;;;;;14.85;46.90;103999.25;5033296;28;20078;-62
2022/01/13 02:30:58;;;;;;;15.50;8.52;;;;;;;14.84;46.98;103994.88;5033277;28;20076;-62
2022/01/13 02:33:24;;;;;;;14.45;8.13;;;;;;;14.84;47.04;103993.16;5033224;28;20037;-62
2022/01/13 02:35:49;;;;;;;15.25;8.48;;;;;;;14.82;46.94;103982.69;5037112;28;20030;-62
2022/01/13 02:38:14;;;;;;;13.93;7.65;;;;;;;14.84;46.96;103987.09;5037524;28;20041;-62
2022/01/13 02:40:40;;;;;;;15.05;7.93;;;;;;;14.82;46.99;103990.50;5036983;28;20475;-62
2022/01/13 02:43:06;;;;;;;14.45;7.88;;;;;;;14.81;47.14;103990.41;5036966;28;20120;-62
2022/01/13 02:45:38;;;;;;;14.23;7.65;;;;;;;14.81;47.02;103990.41;5036926;28;20033;-62
2022/01/13 02:48:27;;;;;;;14.60;8.25;;;;;;;14.81;46.90;103986.09;5036801;28;20048;-62
2022/01/13 02:50:54;;;;;;;13.88;7.95;;;;;;;14.81;47.05;103990.41;5036927;28;20036;-62
2022/01/13 02:53:20;;;;;;;14.52;8.02;;;;;;;14.81;46.95;103987.81;5036370;28;20062;-61
2022/01/13 02:55:46;;;;;;;15.57;7.95;;;;;;;14.81;47.13;103988.69;5037128;28;20033;-62
2022/01/13 02:58:15;;;;;;;13.50;7.10;;;;;;;14.80;47.09;103988.59;5036723;28;20468;-62
2022/01/13 03:00:42;;;;;;;14.68;7.57;;;;;;;14.78;47.14;103988.50;5036555;28;20071;-62
2022/01/13 03:03:07;;;;;;;15.00;7.97;;;;;;;14.79;46.99;103987.69;5036669;28;20040;-62
2022/01/13 03:05:37;;;;;;;13.88;7.70;;;;;;;14.79;47.04;103987.69;5036591;28;20033;-62
2022/01/13 03:08:03;;;;;;;16.00;7.75;;;;;;;14.78;47.10;103980.72;5036889;28;20025;-62
2022/01/13 03:10:29;;;;;;;13.18;7.53;;;;;;;14.77;46.91;103984.09;5036537;28;20041;-62
2022/01/13 03:12:56;;;;;;;13.52;6.93;;;;;;;14.78;46.90;103974.59;5036831;28;20053;-62
2022/01/13 03:15:21;;;;;;;12.68;7.30;;;;;;;14.78;47.15;103980.72;5036202;28;20033;-62
2022/01/13 03:17:47;;;;;;;13.23;7.65;;;;;;;14.77;46.93;103976.31;5015931;28;20049;-62
2022/01/13 03:20:12;;;;;;;13.05;6.80;;;;;;;14.78;47.12;103974.59;5016407;28;20067;-62
2022/01/13 03:22:37;;;;;;;13.93;7.55;;;;;;;14.77;47.12;103984.09;5016518;28;20350;-61
2022/01/13 03:25:04;;;;;;;13.68;6.63;;;;;;;14.76;47.14;103982.31;5016385;28;20058;-62
2022/01/13 03:27:34;;;;;;;11.40;6.95;;;;;;;14.76;47.08;103969.31;5016478;28;20038;-62
2022/01/13 03:30:03;;;;;;;13.70;7.30;;;;;;;14.75;47.03;103975.31;5015249;28;20088;-62
2022/01/13 03:32:28;;;;;;;12.68;6.72;;;;;;;14.74;46.99;103968.31;5016315;28;20034;-61
2022/01/13 03:34:53;;;;;;;12.55;6.88;;;;;;;14.75;47.07;103974.44;5016141;28;20084;-62
2022/01/13 03:37:19;;;;;;;13.07;6.53;;;;;;;14.75;47.08;103962.31;5015029;28;20565;-62
2022/01/13 03:39:45;;;;;;;13.25;7.13;;;;;;;14.73;46.96;103958.75;5015849;28;20088;-62
2022/01/13 03:42:10;;;;;;;11.65;6.88;;;;;;;14.72;46.98;103956.97;5016123;28;20073;-62
2022/01/13 03:44:36;;;;;;;12.90;6.63;;;;;;;14.72;47.10;103954.38;5015513;28;20026;-62
2022/01/13 03:47:02;;;;;;;11.73;6.75;;;;;;;14.72;46.97;103953.44;5031923;28;20037;-62
2022/01/13 03:49:28;;;;;;;10.65;6.32;;;;;;;14.73;47.01;103961.34;5035733;28;20115;-62
2022/01/13 03:51:55;;;;;;;11.93;6.53;;;;;;;14.71;46.87;103955.16;5035441;28;20045;-62
2022/01/13 03:54:33;;;;;;;10.50;6.20;;;;;;;14.71;47.06;103957.75;5035697;28;20079;-62
2022/01/13 03:57:13;;;;;;;12.32;7.35;;;;;;;14.70;46.88;103945.56;5035229;28;20441;-62
2022/01/13 04:00:07;;;;;;;11.45;6.68;;;;;;;14.70;47.19;103945.56;5035332;28;20037;-62
2022/01/13 04:02:34;;;;;;;12.07;6.93;;;;;;;14.70;47.03;103953.34;5035774;28;20021;-62
2022/01/13 04:04:59;;;;;;;12.90;6.85;;;;;;;14.68;47.04;103957.56;5035195;28;20041;-62
2022/01/13 04:07:25;;;;;;;12.77;6.85;;;;;;;14.68;47.12;103956.66;5035374;28;20065;-62
2022/01/13 04:09:50;;;;;;;12.38;6.65;;;;;;;14.68;47.21;103948.88;5035068;28;20383;-62
2022/01/13 04:12:18;;;;;;;12.13;6.63;;;;;;;14.67;47.06;103955.78;5035553;28;20124;-62
2022/01/13 04:14:48;;;;;;;11.52;6.55;;;;;;;14.66;47.17;103956.56;5035272;28;20033;-62
2022/01/13 04:17:16;;;;;;;10.50;5.93;;;;;;;14.66;47.10;103951.38;5035196;28;20514;-62
2022/01/13 04:19:42;;;;;;;11.23;6.82;;;;;;;14.66;47.15;103948.78;5016818;28;20030;-62
2022/01/13 04:22:09;;;;;;;12.73;6.32;;;;;;;14.65;47.06;103946.97;5014023;28;20041;-62
2022/01/13 04:24:39;;;;;;;11.47;6.33;;;;;;;14.65;46.84;103957.38;5015375;28;20065;-61
2022/01/13 04:27:05;;;;;;;10.82;6.30;;;;;;;14.64;47.04;103950.38;5015187;28;20782;-62
2022/01/13 04:29:35;;;;;;;12.50;6.55;;;;;;;14.64;47.10;103958.16;5014012;28;20036;-62
2022/01/13 04:32:01;;;;;;;12.40;7.30;;;;;;;14.62;47.08;103950.25;5015339;28;20068;-62
2022/01/13 04:34:26;;;;;;;13.20;7.40;;;;;;;14.63;47.15;103948.56;5015228;28;20380;-62
2022/01/13 04:36:54;;;;;;;11.88;6.60;;;;;;;14.62;47.10;103939.88;5014941;28;20096;-62
2022/01/13 04:39:20;;;;;;;12.75;6.55;;;;;;;14.63;47.08;103938.19;5014772;28;20052;-62
2022/01/13 04:41:48;;;;;;;11.82;6.88;;;;;;;14.63;47.00;103933.00;5014696;28;20030;-62
2022/01/13 04:44:17;;;;;;;11.02;6.22;;;;;;;14.61;47.06;103943.25;5015038;28;20091;-61
2022/01/13 04:46:44;;;;;;;10.00;6.05;;;;;;;14.60;47.00;103932.78;5014874;28;20465;-62
2022/01/13 04:49:09;;;;;;;13.35;7.15;;;;;;;14.60;47.19;103938.91;5014868;28;20291;-62
2022/01/13 04:51:37;;;;;;;11.88;6.63;;;;;;;14.61;47.01;103943.25;5015303;28;20484;-62
2022/01/13 04:54:03;;;;;;;13.05;6.47;;;;;;;14.61;47.11;103938.06;5034938;28;20486;-62
2022/01/13 04:56:31;;;;;;;12.63;6.70;;;;;;;14.61;46.97;103935.47;5016642;28;20033;-62
2022/01/13 04:58:58;;;;;;;11.18;6.45;;;;;;;14.60;47.10;103937.97;5034607;28;20025;-62
2022/01/13 05:01:24;;;;;;;12.68;6.72;;;;;;;14.60;47.19;103932.78;5034114;28;20026;-61
2022/01/13 05:03:50;;;;;;;12.45;6.85;;;;;;;14.61;47.13;103939.78;5034315;28;20040;-61
2022/01/13 05:06:19;;;;;;;12.20;7.28;;;;;;;14.60;47.06;103932.78;5033997;28;20041;-62
2022/01/13 05:08:48;;;;;;;13.52;7.10;;;;;;;14.60;47.07;103932.78;5034255;28;20105;-62
2022/01/13 05:11:14;;;;;;;12.02;6.47;;;;;;;14.58;47.00;103940.47;5034310;28;20033;-62
2022/01/13 05:13:40;;;;;;;15.00;7.88;;;;;;;14.59;47.10;103941.38;5034144;28;20034;-62
2022/01/13 05:16:07;;;;;;;12.38;7.00;;;;;;;14.58;47.06;103944.78;5034160;28;20116;-63
2022/01/13 05:21:45;;;;;;;13.65;7.00;;;;;;;14.58;47.22;103949.97;5010480;28;20045;-61
2022/01/13 05:24:10;;;;;;;12.23;7.25;;;;;;;14.57;46.99;103953.38;5034227;28;20498;-62
2022/01/13 05:26:36;;;;;;;13.63;7.55;;;;;;;14.58;46.96;103949.97;5033979;28;20124;-61
2022/01/13 05:29:03;;;;;;;12.52;6.72;;;;;;;14.57;47.09;103940.38;5033765;28;20438;-61
2022/01/13 05:31:28;;;;;;;12.57;6.75;;;;;;;14.57;47.04;103937.78;5033951;28;20041;-62
2022/01/13 05:33:53;;;;;;;11.32;6.53;;;;;;;14.56;47.07;103943.78;5034074;28;20029;-62
2022/01/13 05:36:19;;;;;;;14.23;7.97;;;;;;;14.56;46.92;103938.59;5033660;28;20048;-62
2022/01/13 05:38:44;;;;;;;12.43;7.05;;;;;;;14.56;47.02;103934.28;5016233;28;20041;-62
2022/01/13 05:41:10;;;;;;;11.93;6.25;;;;;;;14.56;47.13;103934.28;5032726;28;20041;-61
2022/01/13 05:43:36;;;;;;;13.15;6.88;;;;;;;14.56;47.01;103936.00;5032738;28;20033;-62
2022/01/13 05:46:02;;;;;;;13.52;6.65;;;;;;;14.56;46.97;103941.19;5033665;28;20029;-62
2022/01/13 05:48:28;;;;;;;12.32;6.75;;;;;;;14.56;46.99;103946.38;5016219;28;20099;-62
2022/01/13 05:50:53;;;;;;;12.43;7.18;;;;;;;14.57;47.16;103953.38;5033971;28;20464;-62
2022/01/13 05:53:19;;;;;;;13.45;7.18;;;;;;;14.57;47.02;103948.19;5033093;28;20053;-62
2022/01/13 05:55:44;;;;;;;12.57;6.90;;;;;;;14.56;47.02;103943.78;5015661;28;20034;-62
2022/01/13 05:58:10;;;;;;;15.07;7.35;;;;;;;14.57;46.94;103937.78;5032768;28;20041;-62
2022/01/13 06:00:36;;;;;;;12.25;6.78;;;;;;;14.56;47.10;103946.38;5032990;28;20033;-61
2022/01/13 06:03:02;;;;;;;13.70;7.50;;;;;;;14.56;46.96;103952.44;5033572;28;20025;-62
2022/01/13 06:05:28;;;;;;;13.25;7.10;;;;;;;14.55;46.96;103950.69;5015754;28;20053;-62
2022/01/13 06:07:53;;;;;;;15.15;7.40;;;;;;;14.55;46.92;103947.16;5033328;28;20544;-62
2022/01/13 06:10:20;;;;;;;14.68;6.82;;;;;;;14.55;47.07;103942.91;5037268;28;20560;-62
2022/01/13 06:12:47;;;;;;;13.27;6.88;;;;;;;14.55;46.94;103942.91;5037589;28;20039;-62
2022/01/13 06:15:15;;;;;;;13.50;7.60;;;;;;;14.54;47.01;103943.69;5037431;28;20487;-62
2022/01/13 06:17:41;;;;;;;13.95;7.22;;;;;;;14.53;46.99;103947.09;5037438;28;20427;-62
2022/01/13 06:20:10;;;;;;;13.20;7.20;;;;;;;14.54;46.92;103943.69;5019181;28;20033;-62
2022/01/13 06:22:36;;;;;;;13.30;6.80;;;;;;;14.54;47.02;103932.38;5036636;28;20268;-61
2022/01/13 06:25:03;;;;;;;15.38;7.35;;;;;;;14.52;46.94;103934.00;5036937;28;20025;-62
2022/01/13 06:27:28;;;;;;;15.00;7.45;;;;;;;14.53;47.01;103938.41;5036785;28;20045;-62
2022/01/13 06:29:54;;;;;;;12.43;6.75;;;;;;;14.51;46.97;103938.28;5036587;28;20455;-62
2022/01/13 06:32:21;;;;;;;12.65;6.88;;;;;;;14.52;46.96;103939.19;5036404;28;20053;-62
2022/01/13 06:34:47;;;;;;;14.40;7.07;;;;;;;14.52;46.96;103937.50;5036659;28;20109;-62
2022/01/13 06:37:13;;;;;;;13.68;7.18;;;;;;;14.52;46.78;103934.00;5036542;28;20075;-62
2022/01/13 06:39:38;;;;;;;13.10;6.95;;;;;;;14.52;46.96;103931.41;5036549;28;20025;-62
2022/01/13 06:42:04;;;;;;;13.38;6.93;;;;;;;14.50;47.09;103933.94;5036168;28;20025;-61
2022/01/13 06:44:29;;;;;;;13.20;7.10;;;;;;;14.50;46.97;103933.94;5035914;28;20041;-62
2022/01/13 06:46:55;;;;;;;14.85;7.68;;;;;;;14.49;47.05;103935.59;5036114;28;20032;-61
2022/01/13 06:49:20;;;;;;;13.07;6.82;;;;;;;14.49;47.00;103935.59;5036191;28;20188;-62
2022/01/13 06:51:46;;;;;;;12.45;6.93;;;;;;;14.48;46.79;103933.81;5035834;28;20040;-61
2022/01/13 06:54:11;;;;;;;14.35;6.93;;;;;;;14.49;46.94;103930.41;5035531;28;20061;-61
2022/01/13 06:56:37;;;;;;;12.80;7.30;;;;;;;14.48;46.93;103928.59;5036620;28;20033;-61
2022/01/13 06:59:08;;;;;;;11.82;6.53;;;;;;;14.48;47.00;103930.31;5035782;28;20033;-62
2022/01/13 07:01:34;;;;;;;13.18;7.05;;;;;;;14.48;46.96;103938.09;5036325;28;20044;-62
2022/01/13 07:03:59;;;;;;;14.57;7.18;;;;;;;14.48;46.98;103944.19;5036182;28;20026;-62
2022/01/13 07:06:24;;;;;;;13.93;7.20;;;;;;;14.47;47.11;103932.03;5036665;28;20068;-62
2022/01/13 07:08:50;;;;;;;12.75;6.80;;;;;;;14.46;47.00;103930.22;5035945;28;20087;-62
2022/01/13 07:11:15;;;;;;;13.27;6.68;;;;;;;14.46;46.97;103940.63;5034878;28;20041;-61
2022/01/13 07:13:41;;;;;;;12.93;7.05;;;;;;;14.46;47.05;103925.03;5035965;28;20472;-62
2022/01/13 07:16:06;;;;;;;13.32;6.97;;;;;;;14.45;46.92;103933.63;5018317;28;20029;-62
2022/01/13 07:18:38;;;;;;;12.40;6.82;;;;;;;14.46;46.92;103924.13;5020521;28;20056;-62
2022/01/13 07:21:05;;;;;;;11.60;6.55;;;;;;;14.44;47.16;103921.44;5034100;28;20404;-62
2022/01/13 07:23:31;;;;;;;13.52;7.07;;;;;;;14.45;46.90;103933.63;5028703;28;20034;-62
2022/01/13 07:25:56;;;;;;;12.43;6.50;;;;;;;14.44;46.96;103937.00;5034805;28;20029;-62
2022/01/13 07:28:22;;;;;;;12.18;6.88;;;;;;;14.44;46.96;103939.59;5034713;28;20424;-62
2022/01/13 07:30:47;;;;;;;12.68;6.57;;;;;;;14.44;46.94;103942.19;5035532;28;20083;-62
2022/01/13 07:33:13;;;;;;;13.20;6.70;;;;;;;14.42;46.85;103936.03;5035209;28;20041;-62
2022/01/13 07:35:38;;;;;;;11.20;6.00;;;;;;;14.44;46.80;103933.53;5034212;28;20033;-62
2022/01/13 07:38:04;;;;;;;11.27;6.35;;;;;;;14.43;47.00;103931.72;5034721;28;20026;-62
2022/01/13 07:40:29;;;;;;;12.32;6.82;;;;;;;14.41;46.94;103931.63;5034546;28;20045;-62
2022/01/13 07:42:55;;;;;;;11.25;6.38;;;;;;;14.42;46.94;103937.72;5016782;28;20063;-62
2022/01/13 07:45:20;;;;;;;11.55;6.13;;;;;;;14.41;46.95;103941.09;5034183;28;20139;-62
2022/01/13 07:47:46;;;;;;;11.45;6.28;;;;;;;14.41;47.02;103936.84;5034380;28;20533;-62
2022/01/13 07:50:14;;;;;;;12.55;7.13;;;;;;;14.40;46.95;103940.22;5034255;28;20484;-62
2022/01/13 07:52:40;;;;;;;12.43;6.22;;;;;;;14.39;46.86;103941.00;5034183;28;20052;-62
2022/01/13 07:55:06;;;;;;;12.65;6.60;;;;;;;14.40;46.87;103944.53;5034116;28;20030;-61
2022/01/13 07:57:32;;;;;;;13.32;7.20;;;;;;;14.40;46.91;103941.94;5034209;28;20472;-61
2022/01/13 07:59:58;;;;;;;12.55;6.28;;;;;;;14.40;46.90;103942.81;5034595;28;20099;-62
2022/01/13 08:02:23;;;;;;;11.70;6.35;;;;;;;14.42;46.78;103946.41;5034654;28;20078;-62
2022/01/13 08:04:49;;;;;;;11.55;6.55;;;;;;;14.43;46.84;103948.19;5034250;28;20116;-62
2022/01/13 08:07:15;;;;;;;13.20;7.00;;;;;;;14.47;46.57;103947.59;5034564;28;20032;-62
2022/01/13 08:09:40;;;;;;;12.77;6.15;;;;;;;14.49;46.55;103951.19;5014577;28;20480;-62
2022/01/13 08:12:06;;;;;;;12.40;6.95;;;;;;;14.52;46.42;103950.47;5030895;28;20037;-62
2022/01/13 08:14:32;;;;;;;11.77;6.60;;;;;;;14.55;46.61;103954.97;5033317;28;20104;-62
2022/01/13 08:17:00;;;;;;;12.10;6.57;;;;;;;14.56;46.59;103952.44;5034144;28;20033;-62
2022/01/13 08:22:09;;;;;;;13.00;6.80;;;;;;;14.60;46.50;103958.75;5014730;28;20119;-62
2022/01/13 08:24:34;;;;;;;11.27;6.25;;;;;;;14.61;46.52;103955.34;5014479;28;20436;-62
2022/01/13 08:27:00;;;;;;;12.00;6.68;;;;;;;14.62;46.31;103959.75;5014658;28;20761;-62
2022/01/13 08:29:25;;;;;;;12.18;6.28;;;;;;;14.62;46.53;103965.81;5014822;28;20034;-62
2022/01/13 08:31:51;;;;;;;13.05;6.47;;;;;;;14.62;46.33;103958.03;5014385;28;20456;-62
2022/01/13 08:34:16;;;;;;;9.98;6.22;;;;;;;14.64;46.42;103963.34;5013189;28;20080;-62
2022/01/13 08:36:45;;;;;;;11.43;6.05;;;;;;;14.64;46.37;103971.13;5028170;28;20041;-62
2022/01/13 08:39:11;;;;;;;11.77;6.45;;;;;;;14.64;46.36;103977.25;5033705;28;20041;-62
2022/01/13 08:41:36;;;;;;;10.32;5.97;;;;;;;14.65;46.37;103984.25;5033966;28;20026;-62
2022/01/13 08:44:02;;;;;;;10.75;6.35;;;;;;;14.66;46.27;103977.34;5033269;28;20034;-62
2022/01/13 08:46:28;;;;;;;10.10;5.75;;;;;;;14.65;46.31;103971.25;5033250;28;20036;-62
2022/01/13 08:48:53;;;;;;;10.88;5.95;;;;;;;14.68;46.22;103983.53;5034318;28;20076;-62
2022/01/13 08:51:19;;;;;;;10.98;6.47;;;;;;;14.68;45.96;103983.53;5031579;28;20037;-62
2022/01/13 08:53:46;;;;;;;12.52;7.15;;;;;;;14.68;46.27;103978.34;5026217;28;20111;-61
2022/01/13 08:56:12;;;;;;;12.10;6.50;;;;;;;14.69;46.19;103982.72;5015809;28;20083;-62
2022/01/13 08:58:38;;;;;;;10.32;6.13;;;;;;;14.70;45.63;103976.72;5029524;28;20098;-62
2022/01/13 09:01:03;;;;;;;11.07;5.90;;;;;;;14.69;46.14;103985.31;5031300;28;20021;-62
2022/01/13 09:03:31;;;;;;;12.38;7.10;;;;;;;14.69;46.03;103980.13;5026735;28;20037;-62
2022/01/13 09:05:57;;;;;;;10.43;5.43;;;;;;;14.69;46.02;103987.91;5014342;28;20471;-62
2022/01/13 09:08:22;;;;;;;12.57;6.65;;;;;;;14.69;46.15;103995.69;5025933;28;20032;-62
2022/01/13 09:10:47;;;;;;;12.15;6.35;;;;;;;14.70;46.05;103988.81;5026534;28;20415;-62
2022/01/13 09:13:15;;;;;;;11.75;6.55;;;;;;;14.69;46.11;103985.31;5024741;28;20049;-62
2022/01/13 09:15:45;;;;;;;;;;;;;;;14.71;46.71;103983.72;5008889;28;20038;-62
2022/01/13 09:18:17;;;;;;;11.63;6.03;;;;;;;14.70;46.11;103989.69;5029639;28;19925;-62
2022/01/13 09:20:43;;;;;;;11.85;6.78;;;;;;;14.70;46.05;103992.28;5032474;28;20040;-62
2022/01/13 09:23:09;;;;;;;11.50;6.22;;;;;;;14.70;46.20;103991.41;5022196;28;20037;-62
2022/01/13 09:25:35;;;;;;;11.82;6.78;;;;;;;14.70;46.16;104000.09;5022253;28;20519;-62
2022/01/13 09:28:03;;;;;;;10.63;5.82;;;;;;;14.70;46.14;103991.41;5026489;28;20037;-62
2022/01/13 09:30:29;;;;;;;11.48;6.50;;;;;;;14.70;46.18;103994.91;5012388;28;20357;-62
2022/01/13 09:32:54;;;;;;;11.27;6.47;;;;;;;14.71;46.16;103993.22;5015874;28;20484;-62
2022/01/13 09:35:20;;;;;;;10.70;6.57;;;;;;;14.70;46.12;103997.50;5024849;28;20029;-62
2022/01/13 09:37:45;;;;;;;10.90;6.10;;;;;;;14.70;46.19;103987.09;5016691;28;20088;-62
2022/01/13 09:40:12;;;;;;;11.45;6.45;;;;;;;14.70;46.28;103992.28;5022177;28;20087;-62
2022/01/13 09:42:40;;;;;;;12.65;7.20;;;;;;;14.69;46.06;103995.69;5029642;28;20104;-62
2022/01/13 09:45:07;;;;;;;10.95;6.30;;;;;;;14.69;46.19;103993.09;4998567;28;20052;-62
2022/01/13 09:47:33;;;;;;;12.13;6.57;;;;;;;14.71;46.23;103988.03;5032262;28;20021;-62
2022/01/13 09:50:04;;;;;;;11.02;6.45;;;;;;;14.71;46.13;103993.22;5022606;28;20028;-62
2022/01/13 09:52:29;;;;;;;11.20;6.30;;;;;;;14.71;46.14;103993.22;5028592;28;20518;-62
2022/01/13 09:54:55;;;;;;;12.18;7.05;;;;;;;14.73;46.01;103996.78;5030476;28;20037;-62
2022/01/13 09:57:21;;;;;;;13.23;6.80;;;;;;;14.74;46.29;103993.41;5032328;28;20428;-62
2022/01/13 09:59:46;;;;;;;13.10;7.28;;;;;;;14.75;46.01;104006.47;5032763;28;20025;-62
2022/01/13 10:02:12;;;;;;;12.00;6.55;;;;;;;14.74;46.17;103999.47;5014981;28;20108;-62
2022/01/13 10:04:48;;;;;;;12.23;6.40;;;;;;;14.74;46.17;104002.06;5032956;28;20056;-62
2022/01/13 10:07:17;;;;;;;11.23;6.38;;;;;;;14.74;46.14;103999.47;5032410;28;20080;-62
2022/01/13 10:10:00;;;;;;;12.00;6.43;;;;;;;14.75;46.24;104005.59;5032452;28;20030;-62
2022/01/13 10:12:29;;;;;;;12.00;6.28;;;;;;;14.76;46.33;104003.06;5031675;28;20475;-62
2022/01/13 10:17:46;;;;;;;12.95;7.13;;;;;;;14.77;46.13;103993.56;5033283;28;20434;-62
2022/01/13 10:20:15;;;;;;;12.32;6.50;;;;;;;14.76;46.13;103995.28;5015472;28;20103;-62
2022/01/13 10:22:40;;;;;;;10.80;6.35;;;;;;;14.76;46.09;104002.19;5033153;28;20028;-62
2022/01/13 10:25:08;;;;;;;12.32;6.97;;;;;;;14.76;46.06;103999.59;5033410;28;20033;-62
2022/01/13 10:27:35;;;;;;;12.05;6.47;;;;;;;14.76;45.99;103992.69;5033627;28;20030;-62
2022/01/13 10:30:05;;;;;;;10.00;5.90;;;;;;;14.78;46.16;103997.97;5032488;28;20076;-62
2022/01/13 10:32:38;;;;;;;11.15;6.80;;;;;;;14.77;46.21;103996.16;5033333;28;20026;-62
2022/01/13 10:35:12;;;;;;;11.05;6.25;;;;;;;14.77;46.30;103991.91;5033383;28;20021;-62
2022/01/13 10:37:54;;;;;;;12.60;6.88;;;;;;;14.77;46.19;103994.50;5033619;28;20064;-62
2022/01/13 10:40:24;;;;;;;13.00;6.93;;;;;;;14.77;46.19;103997.09;5033396;28;20057;-62
2022/01/13 10:45:32;;;;;;;12.13;6.35;;;;;;;14.78;45.98;104004.09;5033318;28;20120;-62
2022/01/13 10:48:18;;;;;;;11.63;6.22;;;;;;;14.79;46.23;104003.25;5033046;28;20075;-62
2022/01/13 10:50:54;;;;;;;12.83;6.70;;;;;;;14.79;46.21;103998.06;5033180;28;20053;-62
2022/01/13 10:53:37;;;;;;;12.98;6.60;;;;;;;14.78;46.19;103990.19;5032958;28;20084;-62
2022/01/13 10:56:18;;;;;;;12.45;6.80;;;;;;;14.78;46.28;103985.91;5036080;28;20029;-62
2022/01/13 10:58:53;;;;;;;12.07;6.57;;;;;;;14.79;46.17;103987.69;5036778;28;20471;-62
2022/01/13 11:01:18;;;;;;;12.93;6.70;;;;;;;14.80;46.05;103983.41;5036807;28;20025;-62
2022/01/13 11:03:46;;;;;;;12.50;6.55;;;;;;;14.79;46.07;103979.88;5036694;28;20098;-62
2022/01/13 11:06:12;;;;;;;12.90;6.78;;;;;;;14.79;46.00;103977.28;5036914;28;20033;-62
2022/01/13 11:08:48;;;;;;;11.45;6.10;;;;;;;14.80;46.25;103971.31;5036740;28;20033;-62
2022/01/13 11:11:22;;;;;;;13.48;6.53;;;;;;;14.80;46.22;103963.50;5036144;28;20467;-62
2022/01/13 11:13:53;;;;;;;14.70;7.70;;;;;;;14.81;46.20;103962.72;5035618;28;20360;-62
2022/01/13 11:16:19;;;;;;;13.23;7.07;;;;;;;14.82;46.16;103961.00;5036209;28;20416;-62
2022/01/13 11:18:45;;;;;;;11.73;5.95;;;;;;;14.81;46.08;103959.25;5025572;28;20076;-62
2022/01/13 11:21:11;;;;;;;13.63;6.97;;;;;;;14.81;46.14;103961.84;5016991;28;20038;-62
2022/01/13 11:23:38;;;;;;;14.43;7.18;;;;;;;14.81;46.12;103957.53;5016713;28;20030;-62
2022/01/13 11:26:06;;;;;;;13.35;6.78;;;;;;;14.81;46.17;103957.53;5016409;28;20030;-62
2022/01/13 11:28:35;;;;;;;12.77;6.95;;;;;;;14.82;45.98;103955.81;5016528;28;20037;-62
2022/01/13 11:31:01;;;;;;;11.38;6.93;;;;;;;14.82;46.13;103951.53;5015865;28;20120;-62
2022/01/13 11:33:27;;;;;;;11.70;6.50;;;;;;;14.83;46.38;103952.41;5016192;28;20116;-62
2022/01/13 11:35:57;;;;;;;14.82;6.70;;;;;;;14.84;46.16;103958.53;5015131;28;20492;-62
2022/01/13 11:38:25;;;;;;;13.13;7.03;;;;;;;14.83;46.18;103949.81;5015192;28;20168;-62
2022/01/13 11:40:54;;;;;;;12.40;6.60;;;;;;;14.84;46.17;103948.16;5032394;28;20029;-62
2022/01/13 11:43:25;;;;;;;13.98;6.95;;;;;;;14.83;46.24;103949.81;5032321;28;20406;-62
2022/01/13 11:45:51;;;;;;;12.68;6.40;;;;;;;14.83;46.17;103947.22;5033059;28;20025;-62